sensor_id;sensor_type;location;lat;lon;timestamp;temperature;humidity
32534;DHT22;18973;48.580;8.912;2022-08-21T00:02:03;17.10;99.90
32534;DHT22;18973;48.580;8.912;2022-08-21T00:04:30;17.20;99.90
32534;DHT22;18973;48.580;8.912;2022-08-21T00:06:57;16.90;99.90
32534;DHT22;18973;48.580;8.912;2022-08-21T00:09:24;17.00;99.90
32534;DHT22;18973;48.580;8.912;2022-08-21T00:11:49;16.90;99.90
32534;DHT22;18973;48.580;8.912;2022-08-21T00:14:16;16.80;99.90
32534;DHT22;18973;48.580;8.912;2022-08-21T00:16:42;16.90;99.90
32534;DHT22;18973;48.580;8.912;2022-08-21T00:19:07;16.90;99.90
32534;DHT22;18973;48.580;8.912;2022-08-21T00:21:34;16.90;99.90
32534;DHT22;18973;48.580;8.912;2022-08-21T00:24:00;16.80;99.90
32534;DHT22;18973;48.580;8.912;2022-08-21T00:26:26;16.70;99.90
32534;DHT22;18973;48.580;8.912;2022-08-21T00:28:52;16.70;99.90
32534;DHT22;18973;48.580;8.912;2022-08-21T00:31:18;16.60;99.90
32534;DHT22;18973;48.580;8.912;2022-08-21T00:33:45;16.50;99.90
32534;DHT22;18973;48.580;8.912;2022-08-21T00:36:11;16.50;99.90
32534;DHT22;18973;48.580;8.912;2022-08-21T00:38:37;16.50;99.90
32534;DHT22;18973;48.580;8.912;2022-08-21T00:41:05;16.50;99.90
32534;DHT22;18973;48.580;8.912;2022-08-21T00:43:33;16.40;99.90
32534;DHT22;18973;48.580;8.912;2022-08-21T00:46:00;16.50;99.90
32534;DHT22;18973;48.580;8.912;2022-08-21T00:48:26;16.30;99.90
32534;DHT22;18973;48.580;8.912;2022-08-21T00:51:03;16.40;99.90
32534;DHT22;18973;48.580;8.912;2022-08-21T00:53:30;16.20;99.90
32534;DHT22;18973;48.580;8.912;2022-08-21T00:55:57;16.40;99.90
32534;DHT22;18973;48.580;8.912;2022-08-21T00:58:24;16.50;99.90
32534;DHT22;18973;48.580;8.912;2022-08-21T01:00:52;16.50;99.90
32534;DHT22;18973;48.580;8.912;2022-08-21T01:03:23;16.50;99.90
32534;DHT22;18973;48.580;8.912;2022-08-21T01:05:51;16.60;99.90
32534;DHT22;18973;48.580;8.912;2022-08-21T01:08:18;16.40;99.90
32534;DHT22;18973;48.580;8.912;2022-08-21T01:10:45;16.40;99.90
32534;DHT22;18973;48.580;8.912;2022-08-21T01:13:14;16.40;99.90
32534;DHT22;18973;48.580;8.912;2022-08-21T01:15:45;16.40;99.90
32534;DHT22;18973;48.580;8.912;2022-08-21T01:18:13;16.20;99.90
32534;DHT22;18973;48.580;8.912;2022-08-21T01:20:44;16.30;99.90
32534;DHT22;18973;48.580;8.912;2022-08-21T01:23:10;16.30;99.90
32534;DHT22;18973;48.580;8.912;2022-08-21T01:25:36;16.30;99.90
32534;DHT22;18973;48.580;8.912;2022-08-21T01:28:07;16.30;99.90
32534;DHT22;18973;48.580;8.912;2022-08-21T01:30:35;16.30;99.90
32534;DHT22;18973;48.580;8.912;2022-08-21T01:33:02;16.30;99.90
32534;DHT22;18973;48.580;8.912;2022-08-21T01:35:28;16.30;99.90
32534;DHT22;18973;48.580;8.912;2022-08-21T01:37:53;16.30;99.90
32534;DHT22;18973;48.580;8.912;2022-08-21T01:40:19;16.30;99.90
32534;DHT22;18973;48.580;8.912;2022-08-21T01:42:46;16.30;99.90
32534;DHT22;18973;48.580;8.912;2022-08-21T01:45:15;16.40;99.90
32534;DHT22;18973;48.580;8.912;2022-08-21T01:47:42;16.30;99.90
32534;DHT22;18973;48.580;8.912;2022-08-21T01:50:11;16.40;99.90
32534;DHT22;18973;48.580;8.912;2022-08-21T01:52:37;16.30;99.90
32534;DHT22;18973;48.580;8.912;2022-08-21T01:55:05;16.40;99.90
32534;DHT22;18973;48.580;8.912;2022-08-21T01:57:31;16.30;99.90
32534;DHT22;18973;48.580;8.912;2022-08-21T01:59:58;16.30;99.90
32534;DHT22;18973;48.580;8.912;2022-08-21T02:02:24;16.20;99.90
32534;DHT22;18973;48.580;8.912;2022-08-21T02:04:50;16.20;99.90
32534;DHT22;18973;48.580;8.912;2022-08-21T02:07:16;16.10;99.90
32534;DHT22;18973;48.580;8.912;2022-08-21T02:09:42;16.10;99.90
32534;DHT22;18973;48.580;8.912;2022-08-21T02:12:09;16.00;99.90
32534;DHT22;18973;48.580;8.912;2022-08-21T02:14:34;16.00;99.90
32534;DHT22;18973;48.580;8.912;2022-08-21T02:17:00;16.00;99.90
32534;DHT22;18973;48.580;8.912;2022-08-21T02:19:26;15.90;99.90
32534;DHT22;18973;48.580;8.912;2022-08-21T02:21:52;15.70;99.90
32534;DHT22;18973;48.580;8.912;2022-08-21T02:24:18;15.80;99.90
32534;DHT22;18973;48.580;8.912;2022-08-21T02:26:44;15.60;99.90
32534;DHT22;18973;48.580;8.912;2022-08-21T02:29:09;15.60;99.90
32534;DHT22;18973;48.580;8.912;2022-08-21T02:31:35;15.60;99.90
32534;DHT22;18973;48.580;8.912;2022-08-21T02:34:01;15.60;99.90
32534;DHT22;18973;48.580;8.912;2022-08-21T02:36:29;15.50;99.90
32534;DHT22;18973;48.580;8.912;2022-08-21T02:38:57;15.50;99.90
32534;DHT22;18973;48.580;8.912;2022-08-21T02:41:24;15.50;99.90
32534;DHT22;18973;48.580;8.912;2022-08-21T02:43:50;15.40;99.90
32534;DHT22;18973;48.580;8.912;2022-08-21T02:46:19;15.30;99.90
32534;DHT22;18973;48.580;8.912;2022-08-21T02:48:46;15.10;99.90
32534;DHT22;18973;48.580;8.912;2022-08-21T02:51:16;14.90;99.90
32534;DHT22;18973;48.580;8.912;2022-08-21T02:53:46;14.90;99.90
32534;DHT22;18973;48.580;8.912;2022-08-21T02:56:15;15.00;99.90
32534;DHT22;18973;48.580;8.912;2022-08-21T02:58:49;15.00;99.90
32534;DHT22;18973;48.580;8.912;2022-08-21T03:01:16;14.90;99.90
32534;DHT22;18973;48.580;8.912;2022-08-21T03:03:44;15.00;99.90
32534;DHT22;18973;48.580;8.912;2022-08-21T03:06:13;15.00;99.90
32534;DHT22;18973;48.580;8.912;2022-08-21T03:08:39;15.00;99.90
32534;DHT22;18973;48.580;8.912;2022-08-21T03:11:06;15.10;99.90
32534;DHT22;18973;48.580;8.912;2022-08-21T03:13:32;15.10;99.90
32534;DHT22;18973;48.580;8.912;2022-08-21T03:15:58;15.10;99.90
32534;DHT22;18973;48.580;8.912;2022-08-21T03:18:24;15.00;99.90
32534;DHT22;18973;48.580;8.912;2022-08-21T03:20:50;15.00;99.90
32534;DHT22;18973;48.580;8.912;2022-08-21T03:23:16;15.00;99.90
32534;DHT22;18973;48.580;8.912;2022-08-21T03:25:44;14.90;99.90
32534;DHT22;18973;48.580;8.912;2022-08-21T03:28:19;14.90;99.90
32534;DHT22;18973;48.580;8.912;2022-08-21T03:30:46;14.80;99.90
32534;DHT22;18973;48.580;8.912;2022-08-21T03:33:12;14.80;99.90
32534;DHT22;18973;48.580;8.912;2022-08-21T03:35:38;14.80;99.90
32534;DHT22;18973;48.580;8.912;2022-08-21T03:38:04;14.80;99.90
32534;DHT22;18973;48.580;8.912;2022-08-21T03:40:30;14.80;99.90
32534;DHT22;18973;48.580;8.912;2022-08-21T03:42:55;14.80;99.90
32534;DHT22;18973;48.580;8.912;2022-08-21T03:45:23;14.80;99.90
32534;DHT22;18973;48.580;8.912;2022-08-21T03:47:57;14.80;99.90
32534;DHT22;18973;48.580;8.912;2022-08-21T03:50:28;14.80;99.90
32534;DHT22;18973;48.580;8.912;2022-08-21T03:52:54;14.80;99.90
32534;DHT22;18973;48.580;8.912;2022-08-21T03:55:20;14.70;99.90
32534;DHT22;18973;48.580;8.912;2022-08-21T03:57:46;14.70;99.90
32534;DHT22;18973;48.580;8.912;2022-08-21T04:00:14;14.70;99.90
32534;DHT22;18973;48.580;8.912;2022-08-21T04:02:40;14.70;99.90
32534;DHT22;18973;48.580;8.912;2022-08-21T04:05:07;14.70;99.90
32534;DHT22;18973;48.580;8.912;2022-08-21T04:07:33;14.70;99.90
32534;DHT22;18973;48.580;8.912;2022-08-21T04:09:58;14.80;99.90
32534;DHT22;18973;48.580;8.912;2022-08-21T04:12:24;14.70;99.90
32534;DHT22;18973;48.580;8.912;2022-08-21T04:14:50;14.70;99.90
32534;DHT22;18973;48.580;8.912;2022-08-21T04:17:18;14.60;99.90
32534;DHT22;18973;48.580;8.912;2022-08-21T04:19:44;14.60;99.90
32534;DHT22;18973;48.580;8.912;2022-08-21T04:22:11;14.60;99.90
32534;DHT22;18973;48.580;8.912;2022-08-21T04:24:37;14.60;99.90
32534;DHT22;18973;48.580;8.912;2022-08-21T04:27:02;14.60;99.90
32534;DHT22;18973;48.580;8.912;2022-08-21T04:29:28;14.60;99.90
32534;DHT22;18973;48.580;8.912;2022-08-21T04:31:54;14.50;99.90
32534;DHT22;18973;48.580;8.912;2022-08-21T04:34:20;14.60;99.90
32534;DHT22;18973;48.580;8.912;2022-08-21T04:36:46;14.60;99.90
32534;DHT22;18973;48.580;8.912;2022-08-21T04:39:11;14.40;99.90
32534;DHT22;18973;48.580;8.912;2022-08-21T04:41:37;14.40;99.90
32534;DHT22;18973;48.580;8.912;2022-08-21T04:44:04;14.50;99.90
32534;DHT22;18973;48.580;8.912;2022-08-21T04:46:29;14.50;99.90
32534;DHT22;18973;48.580;8.912;2022-08-21T04:48:55;14.60;99.90
32534;DHT22;18973;48.580;8.912;2022-08-21T04:51:25;14.50;99.90
32534;DHT22;18973;48.580;8.912;2022-08-21T04:54:10;14.60;99.90
32534;DHT22;18973;48.580;8.912;2022-08-21T04:56:59;14.60;99.90
32534;DHT22;18973;48.580;8.912;2022-08-21T04:59:32;14.60;99.90
32534;DHT22;18973;48.580;8.912;2022-08-21T05:02:00;14.40;99.90
32534;DHT22;18973;48.580;8.912;2022-08-21T05:04:29;14.40;99.90
32534;DHT22;18973;48.580;8.912;2022-08-21T05:06:58;14.50;99.90
32534;DHT22;18973;48.580;8.912;2022-08-21T05:09:26;14.40;99.90
32534;DHT22;18973;48.580;8.912;2022-08-21T05:11:52;14.30;99.90
32534;DHT22;18973;48.580;8.912;2022-08-21T05:14:18;14.40;99.90
32534;DHT22;18973;48.580;8.912;2022-08-21T05:16:45;14.40;99.90
32534;DHT22;18973;48.580;8.912;2022-08-21T05:19:11;14.40;99.90
32534;DHT22;18973;48.580;8.912;2022-08-21T05:21:43;14.40;99.90
32534;DHT22;18973;48.580;8.912;2022-08-21T05:24:09;14.40;99.90
32534;DHT22;18973;48.580;8.912;2022-08-21T05:26:35;14.40;99.90
32534;DHT22;18973;48.580;8.912;2022-08-21T05:29:02;14.40;99.90
32534;DHT22;18973;48.580;8.912;2022-08-21T05:31:28;14.30;99.90
32534;DHT22;18973;48.580;8.912;2022-08-21T05:33:54;14.10;99.90
32534;DHT22;18973;48.580;8.912;2022-08-21T05:36:19;14.30;99.90
32534;DHT22;18973;48.580;8.912;2022-08-21T05:38:45;14.40;99.90
32534;DHT22;18973;48.580;8.912;2022-08-21T05:41:12;14.50;99.90
32534;DHT22;18973;48.580;8.912;2022-08-21T05:43:37;14.50;99.90
32534;DHT22;18973;48.580;8.912;2022-08-21T05:46:04;14.50;99.90
32534;DHT22;18973;48.580;8.912;2022-08-21T05:48:31;14.60;99.90
32534;DHT22;18973;48.580;8.912;2022-08-21T05:50:57;14.70;99.90
32534;DHT22;18973;48.580;8.912;2022-08-21T05:53:23;14.70;99.90
32534;DHT22;18973;48.580;8.912;2022-08-21T05:55:50;14.70;99.90
32534;DHT22;18973;48.580;8.912;2022-08-21T05:58:19;14.80;99.90
32534;DHT22;18973;48.580;8.912;2022-08-21T06:00:47;14.80;99.90
32534;DHT22;18973;48.580;8.912;2022-08-21T06:03:15;14.90;99.90
32534;DHT22;18973;48.580;8.912;2022-08-21T06:05:42;14.90;99.90
32534;DHT22;18973;48.580;8.912;2022-08-21T06:08:08;15.00;99.90
32534;DHT22;18973;48.580;8.912;2022-08-21T06:10:34;15.00;99.90
32534;DHT22;18973;48.580;8.912;2022-08-21T06:12:59;15.10;99.90
32534;DHT22;18973;48.580;8.912;2022-08-21T06:15:26;15.10;99.90
32534;DHT22;18973;48.580;8.912;2022-08-21T06:17:54;15.10;99.90
32534;DHT22;18973;48.580;8.912;2022-08-21T06:20:20;15.10;99.90
32534;DHT22;18973;48.580;8.912;2022-08-21T06:22:46;15.20;99.90
32534;DHT22;18973;48.580;8.912;2022-08-21T06:25:12;15.30;99.90
32534;DHT22;18973;48.580;8.912;2022-08-21T06:27:38;15.40;99.90
32534;DHT22;18973;48.580;8.912;2022-08-21T06:30:05;15.50;99.90
32534;DHT22;18973;48.580;8.912;2022-08-21T06:32:31;15.60;99.90
32534;DHT22;18973;48.580;8.912;2022-08-21T06:34:57;15.70;99.90
32534;DHT22;18973;48.580;8.912;2022-08-21T06:37:22;15.80;99.90
32534;DHT22;18973;48.580;8.912;2022-08-21T06:39:48;15.90;99.90
32534;DHT22;18973;48.580;8.912;2022-08-21T06:42:15;16.00;99.90
32534;DHT22;18973;48.580;8.912;2022-08-21T06:44:42;16.10;99.90
32534;DHT22;18973;48.580;8.912;2022-08-21T06:47:08;16.20;99.90
32534;DHT22;18973;48.580;8.912;2022-08-21T06:49:34;16.30;99.90
32534;DHT22;18973;48.580;8.912;2022-08-21T06:52:00;16.50;99.90
32534;DHT22;18973;48.580;8.912;2022-08-21T06:54:26;16.70;99.90
32534;DHT22;18973;48.580;8.912;2022-08-21T06:56:51;16.80;99.90
32534;DHT22;18973;48.580;8.912;2022-08-21T06:59:17;16.90;99.90
32534;DHT22;18973;48.580;8.912;2022-08-21T07:01:43;17.10;99.90
32534;DHT22;18973;48.580;8.912;2022-08-21T07:04:10;17.30;99.90
32534;DHT22;18973;48.580;8.912;2022-08-21T07:06:36;17.40;99.90
32534;DHT22;18973;48.580;8.912;2022-08-21T07:09:02;17.50;99.90
32534;DHT22;18973;48.580;8.912;2022-08-21T07:11:28;17.60;99.90
32534;DHT22;18973;48.580;8.912;2022-08-21T07:13:54;17.80;99.90
32534;DHT22;18973;48.580;8.912;2022-08-21T07:16:22;17.80;99.90
32534;DHT22;18973;48.580;8.912;2022-08-21T07:18:48;18.00;99.90
32534;DHT22;18973;48.580;8.912;2022-08-21T07:21:15;18.10;99.90
32534;DHT22;18973;48.580;8.912;2022-08-21T07:23:46;18.30;99.90
32534;DHT22;18973;48.580;8.912;2022-08-21T07:26:14;18.40;99.90
32534;DHT22;18973;48.580;8.912;2022-08-21T07:28:40;18.60;99.90
32534;DHT22;18973;48.580;8.912;2022-08-21T07:31:08;18.70;99.90
32534;DHT22;18973;48.580;8.912;2022-08-21T07:33:35;18.80;99.90
32534;DHT22;18973;48.580;8.912;2022-08-21T07:36:01;18.90;99.90
32534;DHT22;18973;48.580;8.912;2022-08-21T07:38:27;19.10;99.90
32534;DHT22;18973;48.580;8.912;2022-08-21T07:40:55;19.30;99.90
32534;DHT22;18973;48.580;8.912;2022-08-21T07:43:22;19.40;99.90
32534;DHT22;18973;48.580;8.912;2022-08-21T07:45:48;19.60;99.90
32534;DHT22;18973;48.580;8.912;2022-08-21T07:48:20;19.80;99.90
32534;DHT22;18973;48.580;8.912;2022-08-21T07:50:46;19.90;99.90
32534;DHT22;18973;48.580;8.912;2022-08-21T07:53:12;20.00;99.90
32534;DHT22;18973;48.580;8.912;2022-08-21T07:55:38;20.10;99.90
32534;DHT22;18973;48.580;8.912;2022-08-21T07:58:03;20.30;99.90
32534;DHT22;18973;48.580;8.912;2022-08-21T08:00:29;20.50;99.90
32534;DHT22;18973;48.580;8.912;2022-08-21T08:02:56;20.60;99.90
32534;DHT22;18973;48.580;8.912;2022-08-21T08:05:28;20.70;99.90
32534;DHT22;18973;48.580;8.912;2022-08-21T08:07:54;20.80;99.90
32534;DHT22;18973;48.580;8.912;2022-08-21T08:10:21;21.00;99.90
32534;DHT22;18973;48.580;8.912;2022-08-21T08:12:48;21.20;99.90
32534;DHT22;18973;48.580;8.912;2022-08-21T08:15:20;21.30;99.90
32534;DHT22;18973;48.580;8.912;2022-08-21T08:17:46;21.30;99.90
32534;DHT22;18973;48.580;8.912;2022-08-21T08:20:15;21.40;99.90
32534;DHT22;18973;48.580;8.912;2022-08-21T08:22:41;21.60;99.90
32534;DHT22;18973;48.580;8.912;2022-08-21T08:25:09;21.80;99.90
32534;DHT22;18973;48.580;8.912;2022-08-21T08:27:36;21.90;99.90
32534;DHT22;18973;48.580;8.912;2022-08-21T08:30:04;22.10;99.90
32534;DHT22;18973;48.580;8.912;2022-08-21T08:32:30;22.30;99.90
32534;DHT22;18973;48.580;8.912;2022-08-21T08:34:56;22.40;99.50
32534;DHT22;18973;48.580;8.912;2022-08-21T08:37:21;22.50;99.90
32534;DHT22;18973;48.580;8.912;2022-08-21T08:39:47;22.60;99.40
32534;DHT22;18973;48.580;8.912;2022-08-21T08:42:25;22.80;98.50
32534;DHT22;18973;48.580;8.912;2022-08-21T08:44:58;23.00;98.90
32534;DHT22;18973;48.580;8.912;2022-08-21T08:47:25;23.20;98.50
32534;DHT22;18973;48.580;8.912;2022-08-21T08:49:58;23.30;97.70
32534;DHT22;18973;48.580;8.912;2022-08-21T08:52:51;23.50;97.50
32534;DHT22;18973;48.580;8.912;2022-08-21T08:55:22;23.70;97.20
32534;DHT22;18973;48.580;8.912;2022-08-21T08:57:50;23.90;96.80
32534;DHT22;18973;48.580;8.912;2022-08-21T09:00:20;24.10;96.50
32534;DHT22;18973;48.580;8.912;2022-08-21T09:02:47;24.30;96.10
32534;DHT22;18973;48.580;8.912;2022-08-21T09:05:46;24.40;96.20
32534;DHT22;18973;48.580;8.912;2022-08-21T09:22:47;24.80;92.10
32534;DHT22;18973;48.580;8.912;2022-08-21T09:25:24;25.10;92.10
32534;DHT22;18973;48.580;8.912;2022-08-21T09:27:51;25.40;91.10
32534;DHT22;18973;48.580;8.912;2022-08-21T09:30:26;25.60;90.80
32534;DHT22;18973;48.580;8.912;2022-08-21T09:32:51;25.70;88.20
32534;DHT22;18973;48.580;8.912;2022-08-21T09:35:20;26.00;89.30
32534;DHT22;18973;48.580;8.912;2022-08-21T09:37:57;26.10;88.10
32534;DHT22;18973;48.580;8.912;2022-08-21T09:45:38;26.20;81.90
32534;DHT22;18973;48.580;8.912;2022-08-21T09:48:23;26.30;80.50
32534;DHT22;18973;48.580;8.912;2022-08-21T09:50:51;26.50;80.60
32534;DHT22;18973;48.580;8.912;2022-08-21T09:53:25;26.70;77.80
32534;DHT22;18973;48.580;8.912;2022-08-21T09:55:57;26.60;77.10
32534;DHT22;18973;48.580;8.912;2022-08-21T09:58:45;26.50;75.50
32534;DHT22;18973;48.580;8.912;2022-08-21T10:01:21;26.70;76.60
32534;DHT22;18973;48.580;8.912;2022-08-21T10:03:48;26.70;73.20
32534;DHT22;18973;48.580;8.912;2022-08-21T10:06:25;26.80;75.90
32534;DHT22;18973;48.580;8.912;2022-08-21T10:09:13;26.80;74.30
32534;DHT22;18973;48.580;8.912;2022-08-21T10:11:43;27.00;74.80
32534;DHT22;18973;48.580;8.912;2022-08-21T10:25:40;28.00;71.60
32534;DHT22;18973;48.580;8.912;2022-08-21T10:28:35;28.20;68.50
32534;DHT22;18973;48.580;8.912;2022-08-21T10:31:23;28.20;68.80
32534;DHT22;18973;48.580;8.912;2022-08-21T10:34:11;28.40;70.50
32534;DHT22;18973;48.580;8.912;2022-08-21T10:37:11;28.50;67.00
32534;DHT22;18973;48.580;8.912;2022-08-21T10:40:06;28.50;65.80
32534;DHT22;18973;48.580;8.912;2022-08-21T10:42:43;28.60;63.40
32534;DHT22;18973;48.580;8.912;2022-08-21T10:45:38;28.20;63.10
32534;DHT22;18973;48.580;8.912;2022-08-21T10:48:08;27.90;62.80
32534;DHT22;18973;48.580;8.912;2022-08-21T10:56:26;27.40;64.80
32534;DHT22;18973;48.580;8.912;2022-08-21T11:04:09;27.90;63.70
32534;DHT22;18973;48.580;8.912;2022-08-21T11:06:40;28.10;64.80
32534;DHT22;18973;48.580;8.912;2022-08-21T11:09:16;28.30;65.40
32534;DHT22;18973;48.580;8.912;2022-08-21T11:11:54;28.40;63.80
32534;DHT22;18973;48.580;8.912;2022-08-21T11:17:16;28.10;61.70
32534;DHT22;18973;48.580;8.912;2022-08-21T11:20:05;28.10;62.40
32534;DHT22;18973;48.580;8.912;2022-08-21T11:22:58;28.20;62.30
32534;DHT22;18973;48.580;8.912;2022-08-21T11:25:35;28.20;60.40
32534;DHT22;18973;48.580;8.912;2022-08-21T11:28:17;28.00;60.90
32534;DHT22;18973;48.580;8.912;2022-08-21T11:31:02;27.90;60.50
32534;DHT22;18973;48.580;8.912;2022-08-21T11:34:44;27.80;59.80
32534;DHT22;18973;48.580;8.912;2022-08-21T11:39:41;27.50;59.50
32534;DHT22;18973;48.580;8.912;2022-08-21T11:45:32;28.00;61.30
32534;DHT22;18973;48.580;8.912;2022-08-21T11:50:44;28.30;61.70
32534;DHT22;18973;48.580;8.912;2022-08-21T11:53:23;28.60;61.30
32534;DHT22;18973;48.580;8.912;2022-08-21T11:56:09;28.70;61.10
32534;DHT22;18973;48.580;8.912;2022-08-21T11:58:41;29.00;59.10
32534;DHT22;18973;48.580;8.912;2022-08-21T12:01:19;29.10;57.60
32534;DHT22;18973;48.580;8.912;2022-08-21T12:03:54;29.20;59.10
32534;DHT22;18973;48.580;8.912;2022-08-21T12:06:29;29.30;59.00
32534;DHT22;18973;48.580;8.912;2022-08-21T12:09:03;29.30;56.00
32534;DHT22;18973;48.580;8.912;2022-08-21T12:11:30;29.00;56.40
32534;DHT22;18973;48.580;8.912;2022-08-21T12:14:11;28.80;57.50
32534;DHT22;18973;48.580;8.912;2022-08-21T12:16:40;28.70;55.10
32534;DHT22;18973;48.580;8.912;2022-08-21T12:19:09;28.60;55.90
32534;DHT22;18973;48.580;8.912;2022-08-21T12:21:52;28.60;56.60
32534;DHT22;18973;48.580;8.912;2022-08-21T12:26:57;28.60;55.70
32534;DHT22;18973;48.580;8.912;2022-08-21T12:29:31;28.80;55.00
32534;DHT22;18973;48.580;8.912;2022-08-21T12:32:04;28.80;54.70
32534;DHT22;18973;48.580;8.912;2022-08-21T12:34:56;28.80;56.30
32534;DHT22;18973;48.580;8.912;2022-08-21T12:37:48;28.80;54.80
32534;DHT22;18973;48.580;8.912;2022-08-21T12:40:20;28.90;57.30
32534;DHT22;18973;48.580;8.912;2022-08-21T12:42:50;29.10;55.70
32534;DHT22;18973;48.580;8.912;2022-08-21T12:45:19;29.20;54.20
32534;DHT22;18973;48.580;8.912;2022-08-21T12:50:21;29.30;53.60
32534;DHT22;18973;48.580;8.912;2022-08-21T12:52:57;29.30;52.20
32534;DHT22;18973;48.580;8.912;2022-08-21T12:55:33;29.30;52.50
32534;DHT22;18973;48.580;8.912;2022-08-21T12:57:59;29.20;52.60
32534;DHT22;18973;48.580;8.912;2022-08-21T13:00:28;29.00;52.80
32534;DHT22;18973;48.580;8.912;2022-08-21T13:02:55;28.90;53.80
32534;DHT22;18973;48.580;8.912;2022-08-21T13:05:31;28.80;52.10
32534;DHT22;18973;48.580;8.912;2022-08-21T13:08:03;28.90;51.40
32534;DHT22;18973;48.580;8.912;2022-08-21T13:10:31;28.70;51.40
32534;DHT22;18973;48.580;8.912;2022-08-21T13:13:02;28.80;51.60
32534;DHT22;18973;48.580;8.912;2022-08-21T13:15:36;28.80;51.70
32534;DHT22;18973;48.580;8.912;2022-08-21T13:18:04;29.00;51.90
32534;DHT22;18973;48.580;8.912;2022-08-21T13:20:33;29.10;50.50
32534;DHT22;18973;48.580;8.912;2022-08-21T13:23:01;29.30;49.20
32534;DHT22;18973;48.580;8.912;2022-08-21T13:25:30;29.30;50.30
32534;DHT22;18973;48.580;8.912;2022-08-21T13:28:10;29.30;51.50
32534;DHT22;18973;48.580;8.912;2022-08-21T13:30:43;29.60;51.50
32534;DHT22;18973;48.580;8.912;2022-08-21T13:33:11;29.70;49.50
32534;DHT22;18973;48.580;8.912;2022-08-21T13:38:33;29.70;50.00
32534;DHT22;18973;48.580;8.912;2022-08-21T13:41:10;29.80;51.30
32534;DHT22;18973;48.580;8.912;2022-08-21T13:43:45;29.80;50.90
32534;DHT22;18973;48.580;8.912;2022-08-21T13:46:12;30.00;50.70
32534;DHT22;18973;48.580;8.912;2022-08-21T13:48:41;30.00;48.40
32534;DHT22;18973;48.580;8.912;2022-08-21T13:51:07;29.90;47.50
32534;DHT22;18973;48.580;8.912;2022-08-21T13:58:57;29.80;50.20
32534;DHT22;18973;48.580;8.912;2022-08-21T14:03:52;30.10;49.00
32534;DHT22;18973;48.580;8.912;2022-08-21T14:06:22;29.80;49.60
32534;DHT22;18973;48.580;8.912;2022-08-21T14:08:53;29.70;49.30
32534;DHT22;18973;48.580;8.912;2022-08-21T14:11:20;29.50;49.90
32534;DHT22;18973;48.580;8.912;2022-08-21T14:14:01;29.40;49.40
32534;DHT22;18973;48.580;8.912;2022-08-21T14:16:42;29.10;48.90
32534;DHT22;18973;48.580;8.912;2022-08-21T14:19:09;29.00;50.50
32534;DHT22;18973;48.580;8.912;2022-08-21T14:21:39;28.90;49.80
32534;DHT22;18973;48.580;8.912;2022-08-21T14:26:54;28.90;49.40
32534;DHT22;18973;48.580;8.912;2022-08-21T14:29:22;28.90;50.20
32534;DHT22;18973;48.580;8.912;2022-08-21T14:31:52;29.00;49.70
32534;DHT22;18973;48.580;8.912;2022-08-21T14:34:19;28.80;49.20
32534;DHT22;18973;48.580;8.912;2022-08-21T14:36:47;28.70;48.40
32534;DHT22;18973;48.580;8.912;2022-08-21T14:39:13;28.80;48.90
32534;DHT22;18973;48.580;8.912;2022-08-21T14:41:39;28.90;50.10
32534;DHT22;18973;48.580;8.912;2022-08-21T14:44:08;29.00;48.80
32534;DHT22;18973;48.580;8.912;2022-08-21T14:46:34;29.10;50.50
32534;DHT22;18973;48.580;8.912;2022-08-21T14:49:02;29.20;50.60
32534;DHT22;18973;48.580;8.912;2022-08-21T14:51:28;29.30;49.20
32534;DHT22;18973;48.580;8.912;2022-08-21T14:53:53;29.20;49.30
32534;DHT22;18973;48.580;8.912;2022-08-21T14:56:20;29.00;49.70
32534;DHT22;18973;48.580;8.912;2022-08-21T14:58:49;29.00;49.40
32534;DHT22;18973;48.580;8.912;2022-08-21T15:01:18;29.00;50.10
32534;DHT22;18973;48.580;8.912;2022-08-21T15:03:45;28.90;50.60
32534;DHT22;18973;48.580;8.912;2022-08-21T15:06:12;28.90;51.10
32534;DHT22;18973;48.580;8.912;2022-08-21T15:08:38;28.70;51.00
32534;DHT22;18973;48.580;8.912;2022-08-21T15:11:04;28.70;51.40
32534;DHT22;18973;48.580;8.912;2022-08-21T15:13:31;28.50;51.80
32534;DHT22;18973;48.580;8.912;2022-08-21T15:15:57;28.50;51.90
32534;DHT22;18973;48.580;8.912;2022-08-21T15:18:25;28.40;52.00
32534;DHT22;18973;48.580;8.912;2022-08-21T15:20:51;28.20;51.90
32534;DHT22;18973;48.580;8.912;2022-08-21T15:23:18;28.00;52.50
32534;DHT22;18973;48.580;8.912;2022-08-21T15:25:46;28.00;53.20
32534;DHT22;18973;48.580;8.912;2022-08-21T15:28:12;27.90;52.60
32534;DHT22;18973;48.580;8.912;2022-08-21T15:30:43;27.80;52.50
32534;DHT22;18973;48.580;8.912;2022-08-21T15:33:09;27.80;52.50
32534;DHT22;18973;48.580;8.912;2022-08-21T15:35:36;27.80;52.50
32534;DHT22;18973;48.580;8.912;2022-08-21T15:38:02;27.80;53.20
32534;DHT22;18973;48.580;8.912;2022-08-21T15:40:28;27.80;52.00
32534;DHT22;18973;48.580;8.912;2022-08-21T15:42:58;27.90;52.40
32534;DHT22;18973;48.580;8.912;2022-08-21T15:45:25;27.90;52.50
32534;DHT22;18973;48.580;8.912;2022-08-21T15:47:52;27.80;50.90
32534;DHT22;18973;48.580;8.912;2022-08-21T15:50:19;27.80;50.60
32534;DHT22;18973;48.580;8.912;2022-08-21T15:52:45;27.90;51.10
32534;DHT22;18973;48.580;8.912;2022-08-21T15:55:11;27.90;51.00
32534;DHT22;18973;48.580;8.912;2022-08-21T15:57:38;27.80;50.30
32534;DHT22;18973;48.580;8.912;2022-08-21T16:00:20;27.70;51.50
32534;DHT22;18973;48.580;8.912;2022-08-21T16:02:50;27.70;52.10
32534;DHT22;18973;48.580;8.912;2022-08-21T16:05:17;27.70;51.00
32534;DHT22;18973;48.580;8.912;2022-08-21T16:07:45;27.60;51.10
32534;DHT22;18973;48.580;8.912;2022-08-21T16:10:11;27.60;52.20
32534;DHT22;18973;48.580;8.912;2022-08-21T16:12:48;27.60;51.50
32534;DHT22;18973;48.580;8.912;2022-08-21T16:15:15;27.60;51.30
32534;DHT22;18973;48.580;8.912;2022-08-21T16:17:44;27.50;52.90
32534;DHT22;18973;48.580;8.912;2022-08-21T16:20:15;27.50;53.30
32534;DHT22;18973;48.580;8.912;2022-08-21T16:22:44;27.40;53.40
32534;DHT22;18973;48.580;8.912;2022-08-21T16:25:10;27.30;53.50
32534;DHT22;18973;48.580;8.912;2022-08-21T16:27:36;27.30;54.30
32534;DHT22;18973;48.580;8.912;2022-08-21T16:30:04;27.10;54.10
32534;DHT22;18973;48.580;8.912;2022-08-21T16:32:30;27.10;53.60
32534;DHT22;18973;48.580;8.912;2022-08-21T16:34:56;26.90;54.30
32534;DHT22;18973;48.580;8.912;2022-08-21T16:37:22;26.90;55.20
32534;DHT22;18973;48.580;8.912;2022-08-21T16:39:48;26.90;55.60
32534;DHT22;18973;48.580;8.912;2022-08-21T16:42:18;26.90;55.20
32534;DHT22;18973;48.580;8.912;2022-08-21T16:44:45;26.90;55.10
32534;DHT22;18973;48.580;8.912;2022-08-21T16:47:11;26.80;54.70
32534;DHT22;18973;48.580;8.912;2022-08-21T16:49:37;26.80;55.00
32534;DHT22;18973;48.580;8.912;2022-08-21T16:52:03;26.70;54.90
32534;DHT22;18973;48.580;8.912;2022-08-21T16:54:30;26.70;55.40
32534;DHT22;18973;48.580;8.912;2022-08-21T16:56:56;26.70;54.90